createdAt,value
2023-04-18T00:01:30.041Z,11.52
2023-04-18T00:04:18.259Z,11.49
2023-04-18T00:07:04.403Z,11.50
2023-04-18T00:09:50.333Z,11.44
2023-04-18T00:12:36.487Z,11.48
2023-04-18T00:15:22.572Z,11.47
2023-04-18T00:18:08.563Z,11.44
2023-04-18T00:20:54.702Z,11.46
2023-04-18T00:23:41.735Z,11.47
2023-04-18T00:26:28.198Z,11.47
2023-04-18T00:29:15.837Z,11.47
2023-04-18T00:32:01.551Z,11.49
2023-04-18T00:34:50.058Z,11.48
2023-04-18T00:37:38.369Z,11.50
2023-04-18T00:40:24.911Z,11.53
2023-04-18T00:43:14.219Z,11.55
2023-04-18T00:46:01.649Z,11.56
2023-04-18T00:48:48.253Z,11.57
2023-04-18T00:51:35.441Z,11.58
2023-04-18T00:54:21.822Z,11.57
2023-04-18T00:57:08.106Z,11.60
2023-04-18T00:59:54.045Z,11.58
2023-04-18T01:02:40.711Z,11.59
2023-04-18T01:05:26.969Z,11.55
2023-04-18T01:08:12.960Z,11.51
2023-04-18T01:10:58.907Z,11.48
2023-04-18T01:14:04.923Z,11.40
2023-04-18T01:16:51.105Z,11.38
2023-04-18T01:19:37.936Z,11.33
2023-04-18T01:22:26.185Z,11.21
2023-04-18T01:25:12.771Z,11.27
2023-04-18T01:27:58.920Z,11.23
2023-04-18T01:30:46.574Z,11.27
2023-04-18T01:33:32.412Z,11.25
2023-04-18T01:36:18.216Z,11.26
2023-04-18T01:39:04.166Z,11.21
2023-04-18T01:41:51.589Z,11.29
2023-04-18T01:44:37.556Z,11.34
2023-04-18T01:47:24.414Z,11.37
2023-04-18T01:50:10.769Z,11.39
2023-04-18T01:52:56.603Z,11.39
2023-04-18T01:55:42.676Z,11.43
2023-04-18T01:58:28.388Z,11.44
2023-04-18T02:01:14.281Z,11.46
2023-04-18T02:04:00.197Z,11.44
2023-04-18T02:06:46.788Z,11.42
2023-04-18T02:09:32.905Z,11.43
2023-04-18T02:12:18.853Z,11.42
2023-04-18T02:15:04.904Z,11.44
2023-04-18T02:17:54.463Z,11.44
2023-04-18T02:20:42.502Z,11.41
2023-04-18T02:23:28.130Z,11.46
2023-04-18T02:26:14.552Z,11.47
2023-04-18T02:29:01.302Z,11.45
2023-04-18T02:31:48.561Z,11.46
2023-04-18T02:34:34.443Z,11.43
2023-04-18T02:37:20.570Z,11.42
2023-04-18T02:40:07.320Z,11.45
2023-04-18T02:42:53.383Z,11.45
2023-04-18T02:45:39.440Z,11.45
2023-04-18T02:48:26.140Z,11.46
2023-04-18T02:51:12.798Z,11.46
2023-04-18T02:53:59.700Z,11.46
2023-04-18T02:56:54.725Z,11.46
2023-04-18T02:59:44.455Z,11.47
2023-04-18T03:02:51.171Z,11.48
2023-04-18T03:05:50.413Z,11.48
2023-04-18T03:08:36.252Z,11.47
2023-04-18T03:11:22.533Z,11.46
2023-04-18T03:14:08.886Z,11.46
2023-04-18T03:17:04.312Z,11.48
2023-04-18T03:19:56.221Z,11.49
2023-04-18T03:22:42.899Z,11.48
2023-04-18T03:25:30.133Z,11.48
2023-04-18T03:28:17.399Z,11.49
2023-04-18T03:31:03.250Z,11.47
2023-04-18T03:33:51.804Z,11.50
2023-04-18T03:36:39.233Z,11.50
2023-04-18T03:39:25.550Z,11.48
2023-04-18T03:42:12.453Z,11.49
2023-04-18T03:45:00.592Z,11.49
2023-04-18T03:47:48.552Z,11.46
2023-04-18T03:50:36.528Z,11.46
2023-04-18T03:53:25.408Z,11.48
2023-04-18T03:56:11.354Z,11.46
2023-04-18T03:59:07.024Z,11.48
2023-04-18T04:01:53.083Z,11.49
2023-04-18T04:04:39.425Z,11.47
2023-04-18T04:07:25.411Z,11.50
2023-04-18T04:10:11.301Z,11.51
2023-04-18T04:12:57.381Z,11.50
2023-04-18T04:15:43.783Z,11.52
2023-04-18T04:18:31.280Z,11.51
2023-04-18T04:21:20.657Z,11.52
2023-04-18T04:24:10.518Z,11.55
2023-04-18T04:27:01.243Z,11.54
2023-04-18T04:29:47.394Z,11.57
2023-04-18T04:32:33.503Z,11.57
2023-04-18T04:35:19.715Z,11.58
2023-04-18T04:38:05.873Z,11.58
2023-04-18T04:40:59.275Z,11.55
2023-04-18T04:43:47.059Z,11.58
2023-04-18T04:46:39.641Z,11.59
2023-04-18T04:49:31.454Z,11.57
2023-04-18T04:52:17.292Z,11.56
2023-04-18T04:55:03.986Z,11.55
2023-04-18T04:57:49.969Z,11.55
2023-04-18T05:00:50.942Z,11.58
2023-04-18T05:03:36.993Z,11.56
2023-04-18T05:06:24.771Z,11.57
2023-04-18T05:09:10.706Z,11.56
2023-04-18T05:11:56.842Z,11.61
2023-04-18T05:14:42.827Z,11.62
2023-04-18T05:17:28.657Z,11.67
2023-04-18T05:20:14.395Z,11.71
2023-04-18T05:23:00.275Z,11.72
2023-04-18T05:25:46.521Z,11.76
2023-04-18T05:28:32.760Z,11.78
2023-04-18T05:31:18.927Z,11.82
2023-04-18T05:34:04.998Z,11.85
2023-04-18T05:36:51.169Z,11.89
2023-04-18T05:39:36.936Z,11.91
2023-04-18T05:42:22.695Z,11.95
2023-04-18T05:45:09.008Z,11.96
2023-04-18T05:47:54.950Z,12.02
2023-04-18T05:50:41.064Z,12.09
2023-04-18T05:53:28.327Z,12.10
2023-04-18T05:56:14.101Z,12.17
2023-04-18T05:58:59.821Z,12.22
2023-04-18T06:01:45.701Z,12.28
2023-04-18T06:04:31.503Z,12.27
2023-04-18T06:07:17.798Z,12.38
2023-04-18T06:10:05.723Z,12.45
2023-04-18T06:12:51.376Z,12.49
2023-04-18T06:15:37.176Z,12.50
2023-04-18T06:18:23.317Z,12.52
2023-04-18T06:21:09.028Z,12.55
2023-04-18T06:23:54.909Z,12.57
2023-04-18T06:26:41.040Z,12.60
2023-04-18T06:29:30.327Z,12.61
2023-04-18T06:32:16.284Z,12.57
2023-04-18T06:35:02.291Z,12.61
2023-04-18T06:37:49.202Z,12.66
2023-04-18T06:40:35.153Z,12.70
2023-04-18T06:43:22.090Z,12.74
2023-04-18T06:46:09.732Z,12.77
2023-04-18T06:48:55.522Z,12.82
2023-04-18T06:51:41.206Z,12.86
2023-04-18T06:54:27.429Z,12.90
2023-04-18T06:57:13.286Z,12.94
2023-04-18T06:59:59.077Z,12.98
2023-04-18T07:02:45.146Z,13.01
2023-04-18T07:05:31.090Z,13.07
2023-04-18T07:08:16.846Z,13.12
2023-04-18T07:11:02.872Z,13.16
2023-04-18T07:13:49.415Z,13.15
2023-04-18T07:16:35.161Z,13.20
2023-04-18T07:19:21.082Z,13.20
2023-04-18T07:22:13.151Z,13.22
2023-04-18T07:24:59.144Z,13.22
2023-04-18T07:27:45.009Z,13.29
2023-04-18T07:30:31.101Z,13.36
2023-04-18T07:33:16.829Z,13.42
2023-04-18T07:36:03.335Z,13.53
2023-04-18T07:38:49.317Z,13.58
2023-04-18T07:41:35.587Z,13.67
2023-04-18T07:44:22.090Z,13.69
2023-04-18T07:47:11.339Z,13.85
2023-04-18T07:49:57.510Z,13.91
2023-04-18T07:52:43.614Z,14.02
2023-04-18T07:55:30.113Z,14.05
2023-04-18T07:58:15.839Z,14.06
2023-04-18T08:01:02.831Z,14.09
2023-04-18T08:03:48.737Z,14.09
2023-04-18T08:06:34.896Z,14.13
2023-04-18T08:09:21.876Z,14.12
2023-04-18T08:12:07.670Z,14.20
2023-04-18T08:14:53.378Z,14.27
2023-04-18T08:17:39.408Z,14.33
2023-04-18T08:20:25.802Z,14.41
2023-04-18T08:23:13.248Z,14.50
2023-04-18T08:25:59.334Z,14.54
2023-04-18T08:28:46.549Z,14.61
2023-04-18T08:31:32.783Z,14.65
2023-04-18T08:34:18.715Z,14.71
2023-04-18T08:37:04.870Z,14.78
2023-04-18T08:39:52.167Z,14.86
2023-04-18T08:42:58.363Z,14.90
2023-04-18T08:45:45.263Z,15.03
2023-04-18T08:48:31.116Z,15.12
2023-04-18T08:51:17.675Z,15.17
2023-04-18T08:54:15.820Z,15.26
2023-04-18T08:57:09.642Z,15.28
2023-04-18T08:59:55.557Z,15.35
2023-04-18T09:02:46.959Z,15.33
2023-04-18T09:05:33.722Z,15.44
2023-04-18T09:08:24.536Z,15.46
2023-04-18T09:11:29.369Z,15.52
2023-04-18T09:14:26.600Z,15.57
2023-04-18T09:17:34.773Z,15.63
2023-04-18T09:20:43.826Z,15.68
2023-04-18T09:23:30.432Z,15.70
2023-04-18T09:26:39.777Z,15.70
2023-04-18T09:29:55.903Z,15.75
2023-04-18T09:32:59.271Z,15.80
2023-04-18T09:35:45.155Z,15.82
2023-04-18T09:38:43.814Z,15.89
2023-04-18T09:41:31.426Z,15.93
2023-04-18T09:44:17.849Z,16.00
2023-04-18T09:47:03.893Z,16.07
2023-04-18T09:49:50.049Z,16.15
2023-04-18T09:52:40.872Z,16.22
2023-04-18T09:55:27.374Z,16.25
2023-04-18T09:58:14.923Z,16.27
2023-04-18T10:01:00.945Z,16.29
2023-04-18T10:03:48.258Z,16.27
2023-04-18T10:06:35.066Z,16.23
2023-04-18T10:09:21.286Z,16.22
2023-04-18T10:12:07.243Z,16.15
2023-04-18T10:14:53.911Z,16.11
2023-04-18T10:18:11.036Z,16.15
2023-04-18T10:21:04.700Z,16.15
2023-04-18T10:23:50.981Z,16.13
2023-04-18T10:26:50.526Z,16.08
2023-04-18T10:30:09.193Z,16.05
2023-04-18T10:32:55.865Z,16.00
2023-04-18T10:36:15.058Z,15.97
2023-04-18T10:39:04.148Z,15.98
2023-04-18T10:41:55.414Z,15.99
2023-04-18T10:44:42.947Z,15.96
2023-04-18T10:47:28.769Z,15.92
2023-04-18T10:50:15.021Z,15.88
2023-04-18T10:53:00.842Z,15.86
2023-04-18T10:55:50.179Z,15.85
2023-04-18T10:58:41.947Z,15.85
2023-04-18T11:01:33.025Z,15.89
2023-04-18T11:04:19.568Z,15.87
2023-04-18T11:07:06.078Z,15.93
2023-04-18T11:09:56.737Z,15.92
2023-04-18T11:12:42.528Z,15.95
2023-04-18T11:15:30.378Z,16.01
2023-04-18T11:18:17.046Z,16.06
2023-04-18T11:21:03.960Z,16.16
2023-04-18T11:23:54.930Z,16.35
2023-04-18T11:26:40.821Z,16.76
2023-04-18T11:29:27.830Z,17.20
2023-04-18T11:32:15.638Z,17.52
2023-04-18T11:35:02.449Z,17.81
2023-04-18T11:37:50.359Z,18.19
2023-04-18T11:40:36.767Z,18.42
2023-04-18T11:43:27.420Z,18.72
2023-04-18T11:46:13.946Z,19.06
2023-04-18T11:48:59.980Z,19.22
2023-04-18T11:51:47.509Z,19.31
2023-04-18T11:54:44.389Z,19.27
2023-04-18T11:57:30.442Z,19.15
2023-04-18T12:00:18.310Z,19.07
2023-04-18T12:03:08.180Z,18.96
2023-04-18T12:06:01.537Z,18.86
2023-04-18T12:08:47.632Z,18.75
2023-04-18T12:11:33.379Z,18.58
2023-04-18T12:14:22.456Z,18.43
2023-04-18T12:17:08.078Z,18.25
2023-04-18T12:19:54.113Z,18.10
2023-04-18T12:22:45.548Z,17.92
2023-04-18T12:25:31.754Z,17.75
2023-04-18T12:28:20.373Z,17.62
2023-04-18T12:31:07.434Z,17.52
2023-04-18T12:33:54.556Z,17.36
2023-04-18T12:36:40.471Z,17.28
2023-04-18T12:39:26.619Z,17.19
2023-04-18T12:42:16.343Z,17.08
2023-04-18T12:45:03.462Z,16.99
2023-04-18T12:47:51.312Z,16.90
2023-04-18T12:50:37.484Z,16.80
2023-04-18T12:53:23.523Z,16.69
2023-04-18T12:56:09.515Z,16.59
2023-04-18T12:58:55.597Z,16.50
2023-04-18T13:01:41.173Z,16.39
2023-04-18T13:04:27.234Z,16.37
2023-04-18T13:07:19.385Z,16.32
2023-04-18T13:10:05.816Z,16.28
2023-04-18T13:12:52.366Z,16.23
2023-04-18T13:16:06.218Z,16.17
2023-04-18T13:18:54.099Z,16.13
2023-04-18T13:21:39.816Z,16.11
2023-04-18T13:24:25.588Z,16.13
2023-04-18T13:27:11.902Z,16.15
2023-04-18T13:29:58.333Z,16.20
2023-04-18T13:32:44.312Z,16.27
2023-04-18T13:35:30.414Z,16.37
2023-04-18T13:38:16.495Z,16.44
2023-04-18T13:41:12.417Z,16.58
2023-04-18T13:44:01.561Z,16.73
2023-04-18T13:46:47.591Z,16.99
2023-04-18T13:49:34.185Z,17.43
2023-04-18T13:52:20.216Z,18.04
2023-04-18T13:55:06.496Z,18.75
2023-04-18T13:57:52.521Z,19.42
2023-04-18T14:00:38.713Z,20.09
2023-04-18T14:03:24.880Z,20.77
2023-04-18T14:06:11.059Z,21.33
2023-04-18T14:08:57.120Z,21.85
2023-04-18T14:11:43.669Z,22.32
2023-04-18T14:14:30.035Z,22.74
2023-04-18T14:17:16.071Z,23.03
2023-04-18T14:20:02.424Z,23.38
2023-04-18T14:22:53.183Z,23.70
2023-04-18T14:25:39.429Z,24.00
2023-04-18T14:28:25.510Z,24.05
2023-04-18T14:31:13.602Z,23.99
2023-04-18T14:33:59.663Z,23.91
2023-04-18T14:36:45.400Z,23.95
2023-04-18T14:39:31.221Z,23.87
2023-04-18T14:42:19.787Z,23.80
2023-04-18T14:45:18.268Z,23.60
2023-04-18T14:48:06.009Z,23.20
2023-04-18T14:51:02.619Z,22.84
2023-04-18T14:53:48.541Z,22.35
2023-04-18T14:56:34.417Z,22.00
2023-04-18T14:59:20.746Z,21.52
2023-04-18T15:02:07.475Z,21.10
2023-04-18T15:04:53.631Z,20.77
2023-04-18T15:07:42.947Z,20.46
2023-04-18T15:10:28.874Z,20.27
2023-04-18T15:13:14.804Z,20.24
2023-04-18T15:16:01.502Z,20.16
2023-04-18T15:18:47.384Z,20.21
2023-04-18T15:21:33.085Z,20.29
2023-04-18T15:24:18.934Z,20.29
2023-04-18T15:27:05.052Z,20.19
2023-04-18T15:29:51.008Z,20.01
2023-04-18T15:32:40.258Z,19.84
2023-04-18T15:35:26.216Z,19.69
2023-04-18T15:38:12.303Z,19.54
2023-04-18T15:40:58.478Z,19.38
2023-04-18T15:43:45.698Z,19.24
2023-04-18T15:46:31.611Z,19.08
2023-04-18T15:49:20.050Z,18.88
2023-04-18T15:52:07.006Z,18.73
2023-04-18T15:54:54.725Z,18.58
2023-04-18T15:57:41.880Z,18.43
2023-04-18T16:00:28.298Z,18.37
2023-04-18T16:03:15.838Z,18.30
2023-04-18T16:06:04.628Z,18.25
2023-04-18T16:08:51.182Z,18.18
2023-04-18T16:11:37.212Z,18.11
2023-04-18T16:14:31.329Z,18.06
2023-04-18T16:17:17.459Z,18.00
2023-04-18T16:20:03.791Z,17.93
2023-04-18T16:22:49.610Z,17.83
2023-04-18T16:25:35.492Z,17.77
2023-04-18T16:28:22.182Z,17.64
2023-04-18T16:31:08.360Z,17.56
2023-04-18T16:33:54.614Z,17.43
2023-04-18T16:36:40.760Z,17.36
2023-04-18T16:39:28.158Z,17.27
2023-04-18T16:42:15.668Z,17.15
2023-04-18T16:45:03.028Z,17.09
2023-04-18T16:47:49.276Z,17.00
2023-04-18T16:50:35.563Z,16.95
2023-04-18T16:53:23.854Z,16.89
2023-04-18T16:56:09.980Z,16.79
2023-04-18T16:58:56.053Z,16.74
2023-04-18T17:01:42.169Z,16.67
2023-04-18T17:04:29.168Z,16.60
2023-04-18T17:07:15.835Z,16.51
2023-04-18T17:10:01.716Z,16.46
2023-04-18T17:12:49.254Z,16.41
2023-04-18T17:15:36.149Z,16.34
2023-04-18T17:18:23.556Z,16.30
2023-04-18T17:21:12.528Z,16.21
2023-04-18T17:24:01.893Z,16.19
2023-04-18T17:26:47.855Z,16.13
2023-04-18T17:29:34.044Z,16.07
2023-04-18T17:32:19.994Z,16.01
2023-04-18T17:35:06.559Z,15.93
2023-04-18T17:37:52.976Z,15.84
2023-04-18T17:40:39.700Z,15.86
2023-04-18T17:43:25.853Z,15.81
2023-04-18T17:46:12.301Z,15.71
2023-04-18T17:48:58.150Z,15.65
2023-04-18T17:51:44.006Z,15.59
2023-04-18T17:54:30.289Z,15.53
2023-04-18T17:57:16.637Z,15.50
2023-04-18T18:00:02.507Z,15.46
2023-04-18T18:02:58.399Z,15.40
2023-04-18T18:05:49.471Z,15.26
2023-04-18T18:08:38.118Z,15.20
2023-04-18T18:11:24.422Z,15.11
2023-04-18T18:14:10.178Z,15.00
2023-04-18T18:16:56.159Z,14.90
2023-04-18T18:19:42.379Z,14.82
2023-04-18T18:22:28.419Z,14.80
2023-04-18T18:25:14.470Z,14.71
2023-04-18T18:28:02.266Z,14.63
2023-04-18T18:30:48.417Z,14.54
2023-04-18T18:33:34.695Z,14.46
2023-04-18T18:36:22.044Z,14.36
2023-04-18T18:39:08.360Z,14.32
2023-04-18T18:41:58.393Z,14.27
2023-04-18T18:44:45.677Z,14.23
2023-04-18T18:47:32.016Z,14.20
2023-04-18T18:50:18.372Z,14.17
2023-04-18T18:53:06.198Z,14.10
2023-04-18T18:55:52.130Z,14.04
2023-04-18T18:58:39.407Z,13.96
2023-04-18T19:01:25.344Z,13.92
2023-04-18T19:04:11.585Z,13.86
2023-04-18T19:06:57.754Z,13.84
2023-04-18T19:09:43.913Z,13.81
2023-04-18T19:12:29.983Z,13.75
2023-04-18T19:15:15.806Z,13.72
2023-04-18T19:18:02.049Z,13.71
2023-04-18T19:20:49.859Z,13.69
2023-04-18T19:23:37.628Z,13.66
2023-04-18T19:26:23.744Z,13.64
2023-04-18T19:29:10.568Z,13.57
2023-04-18T19:31:56.530Z,13.55
2023-04-18T19:34:43.029Z,13.50
2023-04-18T19:37:29.039Z,13.45
2023-04-18T19:40:14.995Z,13.40
2023-04-18T19:43:03.251Z,13.33
2023-04-18T19:45:50.962Z,13.27
2023-04-18T19:48:36.845Z,13.25
2023-04-18T19:51:23.028Z,13.24
2023-04-18T19:54:08.948Z,13.21
2023-04-18T19:56:55.151Z,13.20
2023-04-18T19:59:41.174Z,13.17
2023-04-18T20:02:28.280Z,13.17
2023-04-18T20:05:14.793Z,13.15
2023-04-18T20:08:00.676Z,13.09
2023-04-18T20:10:46.529Z,13.06
2023-04-18T20:13:32.414Z,13.06
2023-04-18T20:16:18.750Z,13.04
2023-04-18T20:19:05.846Z,12.98
2023-04-18T20:21:52.294Z,12.96
2023-04-18T20:24:39.440Z,12.97
2023-04-18T20:27:25.779Z,12.97
2023-04-18T20:30:12.093Z,12.98
2023-04-18T20:32:58.070Z,12.99
2023-04-18T20:35:44.661Z,12.97
2023-04-18T20:38:30.921Z,12.98
2023-04-18T20:41:22.771Z,12.97
2023-04-18T20:44:10.828Z,12.95
2023-04-18T20:46:58.606Z,12.89
2023-04-18T20:49:45.080Z,12.90
2023-04-18T20:52:31.110Z,12.86
2023-04-18T20:55:17.164Z,12.82
2023-04-18T20:58:03.300Z,12.79
2023-04-18T21:00:49.328Z,12.74
2023-04-18T21:03:36.003Z,12.68
2023-04-18T21:06:22.837Z,12.65
2023-04-18T21:09:09.679Z,12.61
2023-04-18T21:11:55.614Z,12.61
2023-04-18T21:14:42.416Z,12.59
2023-04-18T21:17:28.433Z,12.56
2023-04-18T21:20:14.485Z,12.57
2023-04-18T21:23:00.278Z,12.56
2023-04-18T21:25:46.033Z,12.54
2023-04-18T21:28:31.823Z,12.50
2023-04-18T21:31:17.807Z,12.50
2023-04-18T21:34:05.385Z,12.48
2023-04-18T21:36:51.547Z,12.48
2023-04-18T21:39:38.291Z,12.48
2023-04-18T21:42:26.968Z,12.46
2023-04-18T21:45:13.708Z,12.47
2023-04-18T21:48:00.881Z,12.44
2023-04-18T21:50:47.019Z,12.46
2023-04-18T21:53:33.260Z,12.48
2023-04-18T21:56:19.434Z,12.49
2023-04-18T21:59:05.401Z,12.52
2023-04-18T22:01:51.003Z,12.50
2023-04-18T22:04:38.223Z,12.51
2023-04-18T22:07:24.714Z,12.52
2023-04-18T22:10:11.153Z,12.55
2023-04-18T22:12:58.756Z,12.55
2023-04-18T22:15:45.168Z,12.53
2023-04-18T22:18:33.990Z,12.56
2023-04-18T22:21:20.254Z,12.56
2023-04-18T22:24:06.924Z,12.57
2023-04-18T22:26:53.635Z,12.55
2023-04-18T22:29:39.644Z,12.55
2023-04-18T22:32:25.522Z,12.53
2023-04-18T22:35:12.439Z,12.54
2023-04-18T22:37:58.341Z,12.50
2023-04-18T22:40:44.133Z,12.47
2023-04-18T22:43:30.721Z,12.49
2023-04-18T22:46:16.787Z,12.50
2023-04-18T22:49:02.633Z,12.53
2023-04-18T22:51:48.696Z,12.54
2023-04-18T22:54:39.259Z,12.59
2023-04-18T22:57:25.397Z,12.60
2023-04-18T23:00:12.405Z,12.66
2023-04-18T23:02:58.365Z,12.64
2023-04-18T23:05:44.793Z,12.68
2023-04-18T23:08:31.076Z,12.70
2023-04-18T23:11:16.922Z,12.68
2023-04-18T23:14:03.295Z,12.67
2023-04-18T23:16:49.564Z,12.62
2023-04-18T23:19:36.023Z,12.58
2023-04-18T23:22:24.494Z,12.55
2023-04-18T23:25:10.691Z,12.49
2023-04-18T23:27:56.598Z,12.46
2023-04-18T23:30:42.393Z,12.47
2023-04-18T23:33:28.249Z,12.45
2023-04-18T23:36:14.216Z,12.45
2023-04-18T23:39:00.295Z,12.40
2023-04-18T23:41:46.262Z,12.42
2023-04-18T23:44:32.505Z,12.40
2023-04-18T23:47:18.825Z,12.37
2023-04-18T23:50:05.466Z,12.39
2023-04-18T23:52:51.547Z,12.40
2023-04-18T23:55:37.459Z,12.42
2023-04-18T23:58:23.413Z,12.39
